sensor_id;sensor_type;location;lat;lon;timestamp;temperature;humidity
33594;DHT22;19920;52.242;20.940;2023-03-21T00:01:55;9.00;99.90
33594;DHT22;19920;52.242;20.940;2023-03-21T00:04:21;8.90;99.90
33594;DHT22;19920;52.242;20.940;2023-03-21T00:06:47;8.90;99.90
33594;DHT22;19920;52.242;20.940;2023-03-21T00:09:13;8.90;99.90
33594;DHT22;19920;52.242;20.940;2023-03-21T00:11:39;8.90;99.90
33594;DHT22;19920;52.242;20.940;2023-03-21T00:14:04;8.90;99.90
33594;DHT22;19920;52.242;20.940;2023-03-21T00:16:33;8.90;99.90
33594;DHT22;19920;52.242;20.940;2023-03-21T00:19:00;8.90;99.90
33594;DHT22;19920;52.242;20.940;2023-03-21T00:21:28;8.80;99.90
33594;DHT22;19920;52.242;20.940;2023-03-21T00:23:57;8.80;99.90
33594;DHT22;19920;52.242;20.940;2023-03-21T00:26:23;8.80;99.90
33594;DHT22;19920;52.242;20.940;2023-03-21T00:28:50;8.80;99.90
33594;DHT22;19920;52.242;20.940;2023-03-21T00:31:16;8.80;99.90
33594;DHT22;19920;52.242;20.940;2023-03-21T00:33:42;8.70;99.90
33594;DHT22;19920;52.242;20.940;2023-03-21T00:36:08;8.70;99.90
33594;DHT22;19920;52.242;20.940;2023-03-21T00:38:35;8.70;99.90
33594;DHT22;19920;52.242;20.940;2023-03-21T00:41:05;8.60;99.90
33594;DHT22;19920;52.242;20.940;2023-03-21T00:43:31;8.60;99.90
33594;DHT22;19920;52.242;20.940;2023-03-21T00:45:58;8.60;99.90
33594;DHT22;19920;52.242;20.940;2023-03-21T00:48:25;8.60;99.90
33594;DHT22;19920;52.242;20.940;2023-03-21T00:50:52;8.60;99.90
33594;DHT22;19920;52.242;20.940;2023-03-21T00:53:19;8.60;99.90
33594;DHT22;19920;52.242;20.940;2023-03-21T00:55:45;8.70;99.90
33594;DHT22;19920;52.242;20.940;2023-03-21T00:58:10;8.60;99.90
33594;DHT22;19920;52.242;20.940;2023-03-21T01:00:36;8.60;99.90
33594;DHT22;19920;52.242;20.940;2023-03-21T01:03:05;8.60;99.90
33594;DHT22;19920;52.242;20.940;2023-03-21T01:05:35;8.60;99.90
33594;DHT22;19920;52.242;20.940;2023-03-21T01:08:20;8.60;99.90
33594;DHT22;19920;52.242;20.940;2023-03-21T01:10:48;8.50;99.90
33594;DHT22;19920;52.242;20.940;2023-03-21T01:13:16;8.50;99.90
33594;DHT22;19920;52.242;20.940;2023-03-21T01:15:44;8.50;99.90
33594;DHT22;19920;52.242;20.940;2023-03-21T01:18:11;8.50;99.90
33594;DHT22;19920;52.242;20.940;2023-03-21T01:20:36;8.50;99.90
33594;DHT22;19920;52.242;20.940;2023-03-21T01:23:02;8.50;99.90
33594;DHT22;19920;52.242;20.940;2023-03-21T01:25:27;8.40;99.90
33594;DHT22;19920;52.242;20.940;2023-03-21T01:27:53;8.40;99.90
33594;DHT22;19920;52.242;20.940;2023-03-21T01:30:19;8.40;99.90
33594;DHT22;19920;52.242;20.940;2023-03-21T01:32:45;8.30;99.90
33594;DHT22;19920;52.242;20.940;2023-03-21T01:35:11;8.30;99.90
33594;DHT22;19920;52.242;20.940;2023-03-21T01:37:36;8.30;99.90
33594;DHT22;19920;52.242;20.940;2023-03-21T01:40:03;8.30;99.90
33594;DHT22;19920;52.242;20.940;2023-03-21T01:42:29;8.30;99.90
33594;DHT22;19920;52.242;20.940;2023-03-21T01:45:03;8.30;99.90
33594;DHT22;19920;52.242;20.940;2023-03-21T01:47:29;8.20;99.90
33594;DHT22;19920;52.242;20.940;2023-03-21T01:49:58;8.30;99.90
33594;DHT22;19920;52.242;20.940;2023-03-21T01:52:30;8.30;99.90
33594;DHT22;19920;52.242;20.940;2023-03-21T01:54:57;8.30;99.90
33594;DHT22;19920;52.242;20.940;2023-03-21T01:57:30;8.40;99.90
33594;DHT22;19920;52.242;20.940;2023-03-21T02:00:02;8.30;99.90
33594;DHT22;19920;52.242;20.940;2023-03-21T02:02:39;8.20;99.90
33594;DHT22;19920;52.242;20.940;2023-03-21T02:05:20;8.30;99.90
33594;DHT22;19920;52.242;20.940;2023-03-21T02:07:48;8.30;99.90
33594;DHT22;19920;52.242;20.940;2023-03-21T02:10:16;8.20;99.90
33594;DHT22;19920;52.242;20.940;2023-03-21T02:12:41;8.20;99.90
33594;DHT22;19920;52.242;20.940;2023-03-21T02:15:08;8.30;99.90
33594;DHT22;19920;52.242;20.940;2023-03-21T02:17:42;8.20;99.90
33594;DHT22;19920;52.242;20.940;2023-03-21T02:29:12;8.20;99.90
33594;DHT22;19920;52.242;20.940;2023-03-21T02:34:50;8.10;99.90
33594;DHT22;19920;52.242;20.940;2023-03-21T02:37:48;8.10;99.90
33594;DHT22;19920;52.242;20.940;2023-03-21T02:40:31;8.10;99.90
33594;DHT22;19920;52.242;20.940;2023-03-21T02:45:39;8.10;99.90
33594;DHT22;19920;52.242;20.940;2023-03-21T02:48:30;8.10;99.90
33594;DHT22;19920;52.242;20.940;2023-03-21T02:50:57;8.10;99.90
33594;DHT22;19920;52.242;20.940;2023-03-21T02:53:29;8.10;99.90
33594;DHT22;19920;52.242;20.940;2023-03-21T02:55:57;8.10;99.90
33594;DHT22;19920;52.242;20.940;2023-03-21T02:58:24;8.10;99.90
33594;DHT22;19920;52.242;20.940;2023-03-21T03:00:52;8.10;99.90
33594;DHT22;19920;52.242;20.940;2023-03-21T03:03:21;8.10;99.90
33594;DHT22;19920;52.242;20.940;2023-03-21T03:05:54;8.10;99.90
33594;DHT22;19920;52.242;20.940;2023-03-21T03:11:27;8.10;99.90
33594;DHT22;19920;52.242;20.940;2023-03-21T03:19:35;8.10;99.90
33594;DHT22;19920;52.242;20.940;2023-03-21T03:22:10;8.10;99.90
33594;DHT22;19920;52.242;20.940;2023-03-21T03:24:44;8.10;99.90
33594;DHT22;19920;52.242;20.940;2023-03-21T03:27:22;8.10;99.90
33594;DHT22;19920;52.242;20.940;2023-03-21T03:29:50;8.00;99.90
33594;DHT22;19920;52.242;20.940;2023-03-21T03:32:17;8.00;99.90
33594;DHT22;19920;52.242;20.940;2023-03-21T03:34:48;8.10;99.90
33594;DHT22;19920;52.242;20.940;2023-03-21T03:37:18;8.00;99.90
33594;DHT22;19920;52.242;20.940;2023-03-21T03:42:51;8.00;99.90
33594;DHT22;19920;52.242;20.940;2023-03-21T03:45:19;8.00;99.90
33594;DHT22;19920;52.242;20.940;2023-03-21T03:48:00;8.00;99.90
33594;DHT22;19920;52.242;20.940;2023-03-21T03:50:38;8.00;99.90
33594;DHT22;19920;52.242;20.940;2023-03-21T03:53:27;8.00;99.90
33594;DHT22;19920;52.242;20.940;2023-03-21T03:55:55;8.10;99.90
33594;DHT22;19920;52.242;20.940;2023-03-21T03:58:23;8.10;99.90
33594;DHT22;19920;52.242;20.940;2023-03-21T04:00:49;8.00;99.90
33594;DHT22;19920;52.242;20.940;2023-03-21T04:03:15;8.10;99.90
33594;DHT22;19920;52.242;20.940;2023-03-21T04:05:41;8.10;99.90
33594;DHT22;19920;52.242;20.940;2023-03-21T04:08:07;8.00;99.90
33594;DHT22;19920;52.242;20.940;2023-03-21T04:10:33;8.00;99.90
33594;DHT22;19920;52.242;20.940;2023-03-21T04:12:59;8.10;99.90
33594;DHT22;19920;52.242;20.940;2023-03-21T04:15:25;8.00;99.90
33594;DHT22;19920;52.242;20.940;2023-03-21T04:17:50;8.10;99.90
33594;DHT22;19920;52.242;20.940;2023-03-21T04:20:16;8.00;99.90
33594;DHT22;19920;52.242;20.940;2023-03-21T04:22:42;8.00;99.90
33594;DHT22;19920;52.242;20.940;2023-03-21T04:25:08;8.00;99.90
33594;DHT22;19920;52.242;20.940;2023-03-21T04:27:34;8.10;99.90
33594;DHT22;19920;52.242;20.940;2023-03-21T04:29:59;8.10;99.90
33594;DHT22;19920;52.242;20.940;2023-03-21T04:32:26;8.10;99.90
33594;DHT22;19920;52.242;20.940;2023-03-21T04:34:52;8.10;99.90
33594;DHT22;19920;52.242;20.940;2023-03-21T04:37:20;8.00;99.90
33594;DHT22;19920;52.242;20.940;2023-03-21T04:39:48;8.10;99.90
33594;DHT22;19920;52.242;20.940;2023-03-21T04:42:15;8.00;99.90
33594;DHT22;19920;52.242;20.940;2023-03-21T04:44:43;8.10;99.90
33594;DHT22;19920;52.242;20.940;2023-03-21T04:47:09;8.00;99.90
33594;DHT22;19920;52.242;20.940;2023-03-21T04:49:35;8.10;99.90
33594;DHT22;19920;52.242;20.940;2023-03-21T04:52:00;8.10;99.90
33594;DHT22;19920;52.242;20.940;2023-03-21T04:54:26;8.10;99.90
33594;DHT22;19920;52.242;20.940;2023-03-21T04:56:52;8.00;99.90
33594;DHT22;19920;52.242;20.940;2023-03-21T04:59:18;7.90;99.90
33594;DHT22;19920;52.242;20.940;2023-03-21T05:01:44;7.90;99.90
33594;DHT22;19920;52.242;20.940;2023-03-21T05:04:12;8.00;99.90
33594;DHT22;19920;52.242;20.940;2023-03-21T05:06:38;8.00;99.90
33594;DHT22;19920;52.242;20.940;2023-03-21T05:09:04;8.00;99.90
33594;DHT22;19920;52.242;20.940;2023-03-21T05:11:32;7.90;99.90
33594;DHT22;19920;52.242;20.940;2023-03-21T05:14:00;8.00;99.90
33594;DHT22;19920;52.242;20.940;2023-03-21T05:16:26;8.00;99.90
33594;DHT22;19920;52.242;20.940;2023-03-21T05:18:55;8.00;99.90
33594;DHT22;19920;52.242;20.940;2023-03-21T05:21:21;8.00;99.90
33594;DHT22;19920;52.242;20.940;2023-03-21T05:23:47;8.00;99.90
33594;DHT22;19920;52.242;20.940;2023-03-21T05:26:19;7.90;99.90
33594;DHT22;19920;52.242;20.940;2023-03-21T05:28:45;8.00;99.90
33594;DHT22;19920;52.242;20.940;2023-03-21T05:31:13;7.90;99.90
33594;DHT22;19920;52.242;20.940;2023-03-21T05:33:41;8.00;99.90
33594;DHT22;19920;52.242;20.940;2023-03-21T05:36:08;7.90;99.90
33594;DHT22;19920;52.242;20.940;2023-03-21T05:38:34;8.00;99.90
33594;DHT22;19920;52.242;20.940;2023-03-21T05:40:59;8.00;99.90
33594;DHT22;19920;52.242;20.940;2023-03-21T05:43:25;7.90;99.90
33594;DHT22;19920;52.242;20.940;2023-03-21T05:45:51;7.90;99.90
33594;DHT22;19920;52.242;20.940;2023-03-21T05:48:17;7.90;99.90
33594;DHT22;19920;52.242;20.940;2023-03-21T05:50:43;8.00;99.90
33594;DHT22;19920;52.242;20.940;2023-03-21T05:53:09;8.00;99.90
33594;DHT22;19920;52.242;20.940;2023-03-21T05:55:35;8.00;99.90
33594;DHT22;19920;52.242;20.940;2023-03-21T05:58:01;8.10;99.90
33594;DHT22;19920;52.242;20.940;2023-03-21T06:00:26;8.10;99.90
33594;DHT22;19920;52.242;20.940;2023-03-21T06:02:52;8.10;99.90
33594;DHT22;19920;52.242;20.940;2023-03-21T06:05:18;8.10;99.90
33594;DHT22;19920;52.242;20.940;2023-03-21T06:07:44;8.20;99.90
33594;DHT22;19920;52.242;20.940;2023-03-21T06:10:10;8.20;99.90
33594;DHT22;19920;52.242;20.940;2023-03-21T06:12:36;8.20;99.90
33594;DHT22;19920;52.242;20.940;2023-03-21T06:15:03;8.20;99.90
33594;DHT22;19920;52.242;20.940;2023-03-21T06:17:30;8.10;99.90
33594;DHT22;19920;52.242;20.940;2023-03-21T06:19:56;8.20;99.90
33594;DHT22;19920;52.242;20.940;2023-03-21T06:22:22;8.30;99.90
33594;DHT22;19920;52.242;20.940;2023-03-21T06:24:48;8.30;99.90
33594;DHT22;19920;52.242;20.940;2023-03-21T06:27:13;8.30;99.90
33594;DHT22;19920;52.242;20.940;2023-03-21T06:29:39;8.40;99.90
33594;DHT22;19920;52.242;20.940;2023-03-21T06:32:05;8.40;99.90
33594;DHT22;19920;52.242;20.940;2023-03-21T06:34:32;8.40;99.90
33594;DHT22;19920;52.242;20.940;2023-03-21T06:36:57;8.30;99.90
33594;DHT22;19920;52.242;20.940;2023-03-21T06:39:23;8.30;99.90
33594;DHT22;19920;52.242;20.940;2023-03-21T06:41:49;8.40;99.90
33594;DHT22;19920;52.242;20.940;2023-03-21T06:44:14;8.30;99.90
33594;DHT22;19920;52.242;20.940;2023-03-21T06:46:40;8.40;99.90
33594;DHT22;19920;52.242;20.940;2023-03-21T06:49:06;8.40;99.90
33594;DHT22;19920;52.242;20.940;2023-03-21T06:51:32;8.40;99.90
33594;DHT22;19920;52.242;20.940;2023-03-21T06:53:57;8.40;99.90
33594;DHT22;19920;52.242;20.940;2023-03-21T06:56:23;8.30;99.90
33594;DHT22;19920;52.242;20.940;2023-03-21T06:58:48;8.40;99.90
33594;DHT22;19920;52.242;20.940;2023-03-21T07:01:14;8.30;99.90
33594;DHT22;19920;52.242;20.940;2023-03-21T07:03:40;8.30;99.90
33594;DHT22;19920;52.242;20.940;2023-03-21T07:06:07;8.20;99.90
33594;DHT22;19920;52.242;20.940;2023-03-21T07:08:39;8.30;99.90
33594;DHT22;19920;52.242;20.940;2023-03-21T07:11:06;8.30;99.90
33594;DHT22;19920;52.242;20.940;2023-03-21T07:13:32;8.30;99.90
33594;DHT22;19920;52.242;20.940;2023-03-21T07:15:58;8.40;99.90
33594;DHT22;19920;52.242;20.940;2023-03-21T07:18:24;8.50;99.90
33594;DHT22;19920;52.242;20.940;2023-03-21T07:20:51;8.40;99.90
33594;DHT22;19920;52.242;20.940;2023-03-21T07:23:21;8.40;99.90
33594;DHT22;19920;52.242;20.940;2023-03-21T07:25:48;8.50;99.90
33594;DHT22;19920;52.242;20.940;2023-03-21T07:28:14;8.70;99.90
33594;DHT22;19920;52.242;20.940;2023-03-21T07:30:41;8.80;99.90
33594;DHT22;19920;52.242;20.940;2023-03-21T07:33:06;8.90;99.90
33594;DHT22;19920;52.242;20.940;2023-03-21T07:35:32;8.90;99.90
33594;DHT22;19920;52.242;20.940;2023-03-21T07:37:58;9.10;99.90
33594;DHT22;19920;52.242;20.940;2023-03-21T07:40:24;9.10;99.90
33594;DHT22;19920;52.242;20.940;2023-03-21T07:42:49;9.10;99.90
33594;DHT22;19920;52.242;20.940;2023-03-21T07:45:16;9.10;99.90
33594;DHT22;19920;52.242;20.940;2023-03-21T07:47:45;9.20;99.90
33594;DHT22;19920;52.242;20.940;2023-03-21T07:50:11;9.20;99.90
33594;DHT22;19920;52.242;20.940;2023-03-21T07:52:36;9.20;99.90
33594;DHT22;19920;52.242;20.940;2023-03-21T07:55:03;9.20;99.90
33594;DHT22;19920;52.242;20.940;2023-03-21T07:57:28;9.20;99.90
33594;DHT22;19920;52.242;20.940;2023-03-21T07:59:54;9.10;99.90
33594;DHT22;19920;52.242;20.940;2023-03-21T08:02:20;9.20;99.90
33594;DHT22;19920;52.242;20.940;2023-03-21T08:04:45;9.30;99.90
33594;DHT22;19920;52.242;20.940;2023-03-21T08:07:11;9.10;99.90
33594;DHT22;19920;52.242;20.940;2023-03-21T08:09:38;9.10;99.90
33594;DHT22;19920;52.242;20.940;2023-03-21T08:12:04;9.10;99.90
33594;DHT22;19920;52.242;20.940;2023-03-21T08:14:30;9.10;99.90
33594;DHT22;19920;52.242;20.940;2023-03-21T08:16:57;9.30;99.90
33594;DHT22;19920;52.242;20.940;2023-03-21T08:19:24;9.20;99.90
33594;DHT22;19920;52.242;20.940;2023-03-21T08:21:51;9.10;99.90
33594;DHT22;19920;52.242;20.940;2023-03-21T08:24:17;9.20;99.90
33594;DHT22;19920;52.242;20.940;2023-03-21T08:26:43;9.50;99.90
33594;DHT22;19920;52.242;20.940;2023-03-21T08:29:12;9.50;99.90
33594;DHT22;19920;52.242;20.940;2023-03-21T08:31:40;9.60;99.90
33594;DHT22;19920;52.242;20.940;2023-03-21T08:34:06;9.70;99.90
33594;DHT22;19920;52.242;20.940;2023-03-21T08:36:34;9.70;99.90
33594;DHT22;19920;52.242;20.940;2023-03-21T08:39:02;9.70;99.90
33594;DHT22;19920;52.242;20.940;2023-03-21T08:41:34;9.80;99.90
33594;DHT22;19920;52.242;20.940;2023-03-21T08:44:00;9.90;99.90
33594;DHT22;19920;52.242;20.940;2023-03-21T08:46:26;9.90;99.90
33594;DHT22;19920;52.242;20.940;2023-03-21T08:48:52;9.70;99.90
33594;DHT22;19920;52.242;20.940;2023-03-21T08:51:18;9.80;99.90
33594;DHT22;19920;52.242;20.940;2023-03-21T08:53:44;10.00;99.90
33594;DHT22;19920;52.242;20.940;2023-03-21T08:56:10;10.00;99.90
33594;DHT22;19920;52.242;20.940;2023-03-21T08:58:36;10.00;99.90
33594;DHT22;19920;52.242;20.940;2023-03-21T09:01:04;9.90;99.90
33594;DHT22;19920;52.242;20.940;2023-03-21T09:03:31;9.80;99.90
33594;DHT22;19920;52.242;20.940;2023-03-21T09:05:58;9.70;99.90
33594;DHT22;19920;52.242;20.940;2023-03-21T09:08:24;9.70;99.90
33594;DHT22;19920;52.242;20.940;2023-03-21T09:10:53;9.70;99.90
33594;DHT22;19920;52.242;20.940;2023-03-21T09:13:19;9.70;99.90
33594;DHT22;19920;52.242;20.940;2023-03-21T09:15:45;9.90;99.90
33594;DHT22;19920;52.242;20.940;2023-03-21T09:18:12;9.80;99.90
33594;DHT22;19920;52.242;20.940;2023-03-21T09:20:38;9.70;99.90
33594;DHT22;19920;52.242;20.940;2023-03-21T09:23:04;9.60;99.90
33594;DHT22;19920;52.242;20.940;2023-03-21T09:25:30;9.70;99.90
33594;DHT22;19920;52.242;20.940;2023-03-21T09:27:57;9.60;99.90
33594;DHT22;19920;52.242;20.940;2023-03-21T09:30:23;9.60;99.90
33594;DHT22;19920;52.242;20.940;2023-03-21T09:32:49;9.50;99.90
33594;DHT22;19920;52.242;20.940;2023-03-21T09:35:16;9.40;99.90
33594;DHT22;19920;52.242;20.940;2023-03-21T09:37:46;9.50;99.90
33594;DHT22;19920;52.242;20.940;2023-03-21T09:40:14;9.50;99.90
33594;DHT22;19920;52.242;20.940;2023-03-21T09:43:19;9.40;99.90
33594;DHT22;19920;52.242;20.940;2023-03-21T09:46:22;9.40;99.90
33594;DHT22;19920;52.242;20.940;2023-03-21T09:48:56;9.50;99.90
33594;DHT22;19920;52.242;20.940;2023-03-21T09:51:25;9.50;99.90
33594;DHT22;19920;52.242;20.940;2023-03-21T09:53:53;9.60;99.90
33594;DHT22;19920;52.242;20.940;2023-03-21T09:56:20;9.60;99.90
33594;DHT22;19920;52.242;20.940;2023-03-21T09:58:53;9.50;99.90
33594;DHT22;19920;52.242;20.940;2023-03-21T10:01:28;9.50;99.90
33594;DHT22;19920;52.242;20.940;2023-03-21T10:04:00;9.50;99.90
33594;DHT22;19920;52.242;20.940;2023-03-21T10:06:28;9.60;99.90
33594;DHT22;19920;52.242;20.940;2023-03-21T10:09:00;9.50;99.90
33594;DHT22;19920;52.242;20.940;2023-03-21T10:11:47;9.30;99.90
33594;DHT22;19920;52.242;20.940;2023-03-21T10:14:19;9.20;99.90
33594;DHT22;19920;52.242;20.940;2023-03-21T10:16:51;9.10;99.90
33594;DHT22;19920;52.242;20.940;2023-03-21T10:19:18;9.00;99.90
33594;DHT22;19920;52.242;20.940;2023-03-21T10:21:48;9.10;99.90
33594;DHT22;19920;52.242;20.940;2023-03-21T10:24:23;9.20;99.90
33594;DHT22;19920;52.242;20.940;2023-03-21T10:26:52;9.10;99.90
33594;DHT22;19920;52.242;20.940;2023-03-21T10:29:21;9.00;99.90
33594;DHT22;19920;52.242;20.940;2023-03-21T10:31:49;8.90;99.90
33594;DHT22;19920;52.242;20.940;2023-03-21T10:34:32;8.80;99.90
33594;DHT22;19920;52.242;20.940;2023-03-21T10:37:01;8.90;99.90
33594;DHT22;19920;52.242;20.940;2023-03-21T10:41:56;9.20;99.90
33594;DHT22;19920;52.242;20.940;2023-03-21T10:44:32;9.50;99.90
33594;DHT22;19920;52.242;20.940;2023-03-21T10:47:05;9.80;99.90
33594;DHT22;19920;52.242;20.940;2023-03-21T10:49:31;10.00;99.90
33594;DHT22;19920;52.242;20.940;2023-03-21T10:52:01;10.10;99.90
33594;DHT22;19920;52.242;20.940;2023-03-21T10:54:34;10.30;99.90
33594;DHT22;19920;52.242;20.940;2023-03-21T10:59:50;10.60;99.90
33594;DHT22;19920;52.242;20.940;2023-03-21T11:05:04;10.80;99.90
33594;DHT22;19920;52.242;20.940;2023-03-21T11:07:31;10.70;99.90
33594;DHT22;19920;52.242;20.940;2023-03-21T11:09:59;10.60;99.90
33594;DHT22;19920;52.242;20.940;2023-03-21T11:12:36;10.60;99.90
33594;DHT22;19920;52.242;20.940;2023-03-21T11:15:29;10.70;99.90
33594;DHT22;19920;52.242;20.940;2023-03-21T11:17:56;10.70;99.90
33594;DHT22;19920;52.242;20.940;2023-03-21T11:20:22;10.40;99.90
33594;DHT22;19920;52.242;20.940;2023-03-21T11:22:48;10.20;99.90
33594;DHT22;19920;52.242;20.940;2023-03-21T11:25:23;10.40;99.90
33594;DHT22;19920;52.242;20.940;2023-03-21T11:27:53;10.50;99.90
33594;DHT22;19920;52.242;20.940;2023-03-21T11:30:24;10.60;99.90
33594;DHT22;19920;52.242;20.940;2023-03-21T11:32:54;10.70;99.90
33594;DHT22;19920;52.242;20.940;2023-03-21T11:35:31;10.80;99.90
33594;DHT22;19920;52.242;20.940;2023-03-21T11:37:57;11.00;99.90
33594;DHT22;19920;52.242;20.940;2023-03-21T11:42:57;11.30;99.90
33594;DHT22;19920;52.242;20.940;2023-03-21T11:45:31;11.40;99.90
33594;DHT22;19920;52.242;20.940;2023-03-21T11:47:59;11.40;99.90
33594;DHT22;19920;52.242;20.940;2023-03-21T11:50:34;11.20;99.90
33594;DHT22;19920;52.242;20.940;2023-03-21T12:15:00;10.80;99.90
33594;DHT22;19920;52.242;20.940;2023-03-21T12:20:40;11.10;99.90
33594;DHT22;19920;52.242;20.940;2023-03-21T12:36:27;11.00;99.90
33594;DHT22;19920;52.242;20.940;2023-03-21T12:41:30;11.00;99.90
33594;DHT22;19920;52.242;20.940;2023-03-21T12:44:20;11.00;99.90
33594;DHT22;19920;52.242;20.940;2023-03-21T12:46:51;11.30;99.90
33594;DHT22;19920;52.242;20.940;2023-03-21T12:49:46;11.60;99.90
33594;DHT22;19920;52.242;20.940;2023-03-21T12:52:28;11.80;99.90
33594;DHT22;19920;52.242;20.940;2023-03-21T12:55:02;12.00;99.90
33594;DHT22;19920;52.242;20.940;2023-03-21T12:57:41;12.00;99.90
33594;DHT22;19920;52.242;20.940;2023-03-21T13:00:21;12.00;99.90
33594;DHT22;19920;52.242;20.940;2023-03-21T13:02:56;12.10;99.90
33594;DHT22;19920;52.242;20.940;2023-03-21T13:08:07;11.90;99.90
33594;DHT22;19920;52.242;20.940;2023-03-21T13:10:37;11.90;99.90
33594;DHT22;19920;52.242;20.940;2023-03-21T13:18:38;12.00;99.90
33594;DHT22;19920;52.242;20.940;2023-03-21T13:24:01;12.00;99.90
33594;DHT22;19920;52.242;20.940;2023-03-21T13:26:39;11.90;99.90
33594;DHT22;19920;52.242;20.940;2023-03-21T13:29:25;11.90;99.90
33594;DHT22;19920;52.242;20.940;2023-03-21T13:31:53;11.90;99.90
33594;DHT22;19920;52.242;20.940;2023-03-21T13:34:23;11.80;99.90
33594;DHT22;19920;52.242;20.940;2023-03-21T13:36:50;12.00;99.90
33594;DHT22;19920;52.242;20.940;2023-03-21T13:39:25;12.00;99.90
33594;DHT22;19920;52.242;20.940;2023-03-21T13:41:51;11.90;99.90
33594;DHT22;19920;52.242;20.940;2023-03-21T13:44:24;12.00;99.90
33594;DHT22;19920;52.242;20.940;2023-03-21T13:47:03;12.10;99.90
33594;DHT22;19920;52.242;20.940;2023-03-21T13:49:34;12.20;99.90
33594;DHT22;19920;52.242;20.940;2023-03-21T13:52:23;12.00;99.90
33594;DHT22;19920;52.242;20.940;2023-03-21T13:54:49;12.00;99.90
33594;DHT22;19920;52.242;20.940;2023-03-21T14:02:57;12.20;99.90
33594;DHT22;19920;52.242;20.940;2023-03-21T14:05:25;12.50;99.90
33594;DHT22;19920;52.242;20.940;2023-03-21T14:07:59;12.50;99.90
33594;DHT22;19920;52.242;20.940;2023-03-21T14:12:58;12.50;99.90
33594;DHT22;19920;52.242;20.940;2023-03-21T14:15:30;12.40;99.90
33594;DHT22;19920;52.242;20.940;2023-03-21T14:18:00;12.40;99.90
33594;DHT22;19920;52.242;20.940;2023-03-21T14:20:40;12.40;99.90
33594;DHT22;19920;52.242;20.940;2023-03-21T14:23:12;12.70;99.90
33594;DHT22;19920;52.242;20.940;2023-03-21T14:25:38;12.80;99.90
33594;DHT22;19920;52.242;20.940;2023-03-21T14:28:17;13.00;99.90
33594;DHT22;19920;52.242;20.940;2023-03-21T14:30:50;13.50;99.90
33594;DHT22;19920;52.242;20.940;2023-03-21T14:33:34;14.20;99.90
33594;DHT22;19920;52.242;20.940;2023-03-21T14:36:09;14.10;99.90
33594;DHT22;19920;52.242;20.940;2023-03-21T14:38:37;13.90;99.90
33594;DHT22;19920;52.242;20.940;2023-03-21T14:41:04;13.70;99.90
33594;DHT22;19920;52.242;20.940;2023-03-21T14:43:31;13.30;99.90
33594;DHT22;19920;52.242;20.940;2023-03-21T14:45:59;12.80;99.90
33594;DHT22;19920;52.242;20.940;2023-03-21T14:48:33;12.50;99.90
33594;DHT22;19920;52.242;20.940;2023-03-21T14:51:06;12.30;99.90
33594;DHT22;19920;52.242;20.940;2023-03-21T14:53:40;12.10;99.90
33594;DHT22;19920;52.242;20.940;2023-03-21T14:56:18;12.00;99.90
33594;DHT22;19920;52.242;20.940;2023-03-21T14:58:46;11.90;99.90
33594;DHT22;19920;52.242;20.940;2023-03-21T15:01:29;11.90;99.90
33594;DHT22;19920;52.242;20.940;2023-03-21T15:03:57;11.80;99.90
33594;DHT22;19920;52.242;20.940;2023-03-21T15:06:23;11.70;99.90
33594;DHT22;19920;52.242;20.940;2023-03-21T15:08:54;11.70;99.90
33594;DHT22;19920;52.242;20.940;2023-03-21T15:11:32;11.70;99.90
33594;DHT22;19920;52.242;20.940;2023-03-21T15:14:00;11.70;99.90
33594;DHT22;19920;52.242;20.940;2023-03-21T15:16:27;11.70;99.90
33594;DHT22;19920;52.242;20.940;2023-03-21T15:18:53;11.70;99.90
33594;DHT22;19920;52.242;20.940;2023-03-21T15:21:27;11.70;99.90
33594;DHT22;19920;52.242;20.940;2023-03-21T15:24:05;11.60;99.90
33594;DHT22;19920;52.242;20.940;2023-03-21T15:26:38;11.50;99.90
33594;DHT22;19920;52.242;20.940;2023-03-21T15:29:05;11.50;99.90
33594;DHT22;19920;52.242;20.940;2023-03-21T15:31:36;11.40;99.90
33594;DHT22;19920;52.242;20.940;2023-03-21T15:34:03;11.40;99.90
33594;DHT22;19920;52.242;20.940;2023-03-21T15:36:34;11.30;99.90
33594;DHT22;19920;52.242;20.940;2023-03-21T15:39:08;11.20;99.90
33594;DHT22;19920;52.242;20.940;2023-03-21T15:41:36;11.20;99.90
33594;DHT22;19920;52.242;20.940;2023-03-21T15:44:12;11.20;99.90
33594;DHT22;19920;52.242;20.940;2023-03-21T15:51:33;11.00;99.90
33594;DHT22;19920;52.242;20.940;2023-03-21T15:54:01;11.00;99.90
33594;DHT22;19920;52.242;20.940;2023-03-21T15:56:27;10.90;99.90
33594;DHT22;19920;52.242;20.940;2023-03-21T15:59:00;11.10;99.90
33594;DHT22;19920;52.242;20.940;2023-03-21T16:01:29;11.10;99.90
33594;DHT22;19920;52.242;20.940;2023-03-21T16:03:57;11.10;99.90
33594;DHT22;19920;52.242;20.940;2023-03-21T16:06:31;11.10;99.90
33594;DHT22;19920;52.242;20.940;2023-03-21T16:09:11;11.10;99.90
33594;DHT22;19920;52.242;20.940;2023-03-21T16:11:43;11.00;99.90
33594;DHT22;19920;52.242;20.940;2023-03-21T16:14:12;11.00;99.90
33594;DHT22;19920;52.242;20.940;2023-03-21T16:16:38;11.00;99.90
33594;DHT22;19920;52.242;20.940;2023-03-21T16:19:04;10.90;99.90
33594;DHT22;19920;52.242;20.940;2023-03-21T16:21:31;11.00;99.90
33594;DHT22;19920;52.242;20.940;2023-03-21T16:23:58;11.00;99.90
33594;DHT22;19920;52.242;20.940;2023-03-21T16:26:27;11.00;99.90
33594;DHT22;19920;52.242;20.940;2023-03-21T16:28:53;11.00;99.90
33594;DHT22;19920;52.242;20.940;2023-03-21T16:31:28;10.90;99.90
33594;DHT22;19920;52.242;20.940;2023-03-21T16:33:54;10.80;99.90
33594;DHT22;19920;52.242;20.940;2023-03-21T16:36:24;10.60;99.90
33594;DHT22;19920;52.242;20.940;2023-03-21T16:38:50;10.40;99.90
33594;DHT22;19920;52.242;20.940;2023-03-21T16:41:20;10.30;99.90
33594;DHT22;19920;52.242;20.940;2023-03-21T16:43:46;10.10;99.90
33594;DHT22;19920;52.242;20.940;2023-03-21T16:46:23;10.10;99.90
33594;DHT22;19920;52.242;20.940;2023-03-21T16:48:52;10.00;99.90
33594;DHT22;19920;52.242;20.940;2023-03-21T16:51:20;9.90;99.90
33594;DHT22;19920;52.242;20.940;2023-03-21T16:53:47;9.80;99.90
33594;DHT22;19920;52.242;20.940;2023-03-21T16:56:23;9.70;99.90
33594;DHT22;19920;52.242;20.940;2023-03-21T16:58:52;9.60;99.90
33594;DHT22;19920;52.242;20.940;2023-03-21T17:01:19;9.60;99.90
33594;DHT22;19920;52.242;20.940;2023-03-21T17:03:46;9.50;99.90
33594;DHT22;19920;52.242;20.940;2023-03-21T17:06:17;9.40;99.90
33594;DHT22;19920;52.242;20.940;2023-03-21T17:08:43;9.30;99.90
33594;DHT22;19920;52.242;20.940;2023-03-21T17:11:11;9.20;99.90
33594;DHT22;19920;52.242;20.940;2023-03-21T17:13:37;9.20;99.90
33594;DHT22;19920;52.242;20.940;2023-03-21T17:16:03;9.10;99.90
33594;DHT22;19920;52.242;20.940;2023-03-21T17:18:31;9.00;99.90
33594;DHT22;19920;52.242;20.940;2023-03-21T17:20:56;9.00;99.90